sensor_id;sensor_type;location;lat;lon;timestamp;pressure;altitude;pressure_sealevel;temperature;humidity
8575;BME280;4325;42.520;27.448;2022-10-17T00:00:29;102465.34;;;10.06;82.11
8575;BME280;4325;42.520;27.448;2022-10-17T00:02:56;102467.63;;;10.09;80.93
8575;BME280;4325;42.520;27.448;2022-10-17T00:05:23;102466.75;;;10.15;80.20
8575;BME280;4325;42.520;27.448;2022-10-17T00:07:50;102459.78;;;10.19;79.77
8575;BME280;4325;42.520;27.448;2022-10-17T00:10:19;102457.09;;;10.31;78.52
8575;BME280;4325;42.520;27.448;2022-10-17T00:12:47;102460.22;;;10.34;77.68
8575;BME280;4325;42.520;27.448;2022-10-17T00:15:15;102465.56;;;10.29;77.62
8575;BME280;4325;42.520;27.448;2022-10-17T00:17:43;102455.25;;;10.25;77.14
8575;BME280;4325;42.520;27.448;2022-10-17T00:20:11;102459.84;;;10.31;77.39
8575;BME280;4325;42.520;27.448;2022-10-17T00:22:37;102472.94;;;10.29;77.24
8575;BME280;4325;42.520;27.448;2022-10-17T00:25:05;102472.53;;;10.25;77.05
8575;BME280;4325;42.520;27.448;2022-10-17T00:27:35;102461.75;;;10.30;76.79
8575;BME280;4325;42.520;27.448;2022-10-17T00:30:03;102474.38;;;10.31;75.94
8575;BME280;4325;42.520;27.448;2022-10-17T00:32:30;102478.00;;;10.25;76.00
8575;BME280;4325;42.520;27.448;2022-10-17T00:34:57;102471.78;;;10.18;77.37
8575;BME280;4325;42.520;27.448;2022-10-17T00:37:24;102486.63;;;10.04;78.83
8575;BME280;4325;42.520;27.448;2022-10-17T00:39:52;102481.34;;;9.84;81.13
8575;BME280;4325;42.520;27.448;2022-10-17T00:42:19;102492.19;;;9.73;83.35
8575;BME280;4325;42.520;27.448;2022-10-17T00:45:19;102487.75;;;9.72;85.07
8575;BME280;4325;42.520;27.448;2022-10-17T00:47:50;102489.44;;;9.73;86.86
8575;BME280;4325;42.520;27.448;2022-10-17T00:50:19;102491.72;;;9.76;88.86
8575;BME280;4325;42.520;27.448;2022-10-17T00:52:47;102483.50;;;9.76;90.41
8575;BME280;4325;42.520;27.448;2022-10-17T00:55:17;102492.78;;;9.75;91.83
8575;BME280;4325;42.520;27.448;2022-10-17T00:57:45;102482.69;;;9.75;92.15
8575;BME280;4325;42.520;27.448;2022-10-17T01:00:15;102482.63;;;9.82;92.18
8575;BME280;4325;42.520;27.448;2022-10-17T01:02:43;102486.22;;;9.82;91.26
8575;BME280;4325;42.520;27.448;2022-10-17T01:05:10;102492.28;;;9.84;91.49
8575;BME280;4325;42.520;27.448;2022-10-17T01:07:38;102479.06;;;9.81;91.55
8575;BME280;4325;42.520;27.448;2022-10-17T01:10:07;102489.78;;;9.83;91.42
8575;BME280;4325;42.520;27.448;2022-10-17T01:12:56;102486.41;;;9.81;91.83
8575;BME280;4325;42.520;27.448;2022-10-17T01:15:39;102487.16;;;9.94;91.61
8575;BME280;4325;42.520;27.448;2022-10-17T01:18:15;102479.94;;;10.00;90.69
8575;BME280;4325;42.520;27.448;2022-10-17T01:21:02;102475.44;;;10.06;90.43
8575;BME280;4325;42.520;27.448;2022-10-17T01:26:49;102479.81;;;10.13;89.51
8575;BME280;4325;42.520;27.448;2022-10-17T01:29:44;102487.31;;;10.24;89.37
8575;BME280;4325;42.520;27.448;2022-10-17T01:32:16;102464.03;;;10.33;88.33
8575;BME280;4325;42.520;27.448;2022-10-17T01:34:52;102474.06;;;10.39;87.70
8575;BME280;4325;42.520;27.448;2022-10-17T01:37:27;102473.41;;;10.44;87.89
8575;BME280;4325;42.520;27.448;2022-10-17T01:40:01;102476.13;;;10.44;87.21
8575;BME280;4325;42.520;27.448;2022-10-17T01:42:33;102470.88;;;10.42;87.34
8575;BME280;4325;42.520;27.448;2022-10-17T01:45:08;102466.59;;;10.46;87.59
8575;BME280;4325;42.520;27.448;2022-10-17T01:47:40;102469.72;;;10.50;87.51
8575;BME280;4325;42.520;27.448;2022-10-17T01:50:12;102478.50;;;10.58;87.82
8575;BME280;4325;42.520;27.448;2022-10-17T01:52:44;102488.50;;;10.65;87.92
8575;BME280;4325;42.520;27.448;2022-10-17T01:55:16;102488.28;;;10.66;87.59
8575;BME280;4325;42.520;27.448;2022-10-17T01:57:48;102478.75;;;10.69;87.76
8575;BME280;4325;42.520;27.448;2022-10-17T02:00:18;102485.78;;;10.65;88.21
8575;BME280;4325;42.520;27.448;2022-10-17T02:02:49;102479.84;;;10.68;88.38
8575;BME280;4325;42.520;27.448;2022-10-17T02:05:21;102478.00;;;10.61;89.07
8575;BME280;4325;42.520;27.448;2022-10-17T02:07:49;102476.81;;;10.57;89.52
8575;BME280;4325;42.520;27.448;2022-10-17T02:10:21;102486.06;;;10.56;90.16
8575;BME280;4325;42.520;27.448;2022-10-17T02:12:55;102487.31;;;10.60;90.11
8575;BME280;4325;42.520;27.448;2022-10-17T02:15:45;102496.56;;;10.59;89.63
8575;BME280;4325;42.520;27.448;2022-10-17T02:18:24;102495.88;;;10.64;89.60
8575;BME280;4325;42.520;27.448;2022-10-17T02:21:00;102488.50;;;10.65;89.40
8575;BME280;4325;42.520;27.448;2022-10-17T02:23:35;102493.53;;;10.68;88.98
8575;BME280;4325;42.520;27.448;2022-10-17T02:26:09;102497.28;;;10.73;88.55
8575;BME280;4325;42.520;27.448;2022-10-17T02:28:40;102494.66;;;10.78;88.41
8575;BME280;4325;42.520;27.448;2022-10-17T02:31:12;102497.53;;;10.83;88.40
8575;BME280;4325;42.520;27.448;2022-10-17T02:33:43;102503.41;;;10.87;88.26
8575;BME280;4325;42.520;27.448;2022-10-17T02:36:16;102501.88;;;10.91;88.61
8575;BME280;4325;42.520;27.448;2022-10-17T02:38:45;102500.72;;;10.98;87.55
8575;BME280;4325;42.520;27.448;2022-10-17T02:41:15;102504.44;;;11.04;85.83
8575;BME280;4325;42.520;27.448;2022-10-17T02:43:46;102514.94;;;11.07;85.59
8575;BME280;4325;42.520;27.448;2022-10-17T02:46:15;102518.28;;;11.09;84.95
8575;BME280;4325;42.520;27.448;2022-10-17T02:48:49;102510.81;;;11.16;85.41
8575;BME280;4325;42.520;27.448;2022-10-17T02:51:23;102506.78;;;11.18;84.79
8575;BME280;4325;42.520;27.448;2022-10-17T02:54:00;102513.59;;;11.27;85.09
8575;BME280;4325;42.520;27.448;2022-10-17T02:56:35;102521.59;;;11.29;84.56
8575;BME280;4325;42.520;27.448;2022-10-17T02:59:04;102519.66;;;11.29;85.01
8575;BME280;4325;42.520;27.448;2022-10-17T03:01:34;102523.25;;;11.30;85.39
8575;BME280;4325;42.520;27.448;2022-10-17T03:04:09;102524.34;;;11.29;85.49
8575;BME280;4325;42.520;27.448;2022-10-17T03:06:36;102511.69;;;11.28;86.49
8575;BME280;4325;42.520;27.448;2022-10-17T03:09:03;102513.38;;;11.29;87.03
8575;BME280;4325;42.520;27.448;2022-10-17T03:11:30;102520.31;;;11.32;87.06
8575;BME280;4325;42.520;27.448;2022-10-17T03:13:57;102519.59;;;11.36;87.08
8575;BME280;4325;42.520;27.448;2022-10-17T03:16:24;102523.28;;;11.42;87.53
8575;BME280;4325;42.520;27.448;2022-10-17T03:18:50;102517.34;;;11.45;87.45
8575;BME280;4325;42.520;27.448;2022-10-17T03:21:19;102522.63;;;11.46;88.32
8575;BME280;4325;42.520;27.448;2022-10-17T03:23:46;102524.78;;;11.56;88.35
8575;BME280;4325;42.520;27.448;2022-10-17T03:26:13;102521.09;;;11.62;88.70
8575;BME280;4325;42.520;27.448;2022-10-17T03:28:40;102527.53;;;11.67;89.36
8575;BME280;4325;42.520;27.448;2022-10-17T03:31:07;102519.47;;;11.72;89.28
8575;BME280;4325;42.520;27.448;2022-10-17T03:33:35;102520.22;;;11.79;88.88
8575;BME280;4325;42.520;27.448;2022-10-17T03:36:06;102528.09;;;11.87;88.94
8575;BME280;4325;42.520;27.448;2022-10-17T03:38:34;102517.84;;;11.95;88.12
8575;BME280;4325;42.520;27.448;2022-10-17T03:41:01;102522.38;;;12.01;87.58
8575;BME280;4325;42.520;27.448;2022-10-17T03:43:29;102521.56;;;12.12;86.49
8575;BME280;4325;42.520;27.448;2022-10-17T03:45:56;102523.78;;;12.15;86.38
8575;BME280;4325;42.520;27.448;2022-10-17T03:48:24;102524.41;;;12.17;86.16
8575;BME280;4325;42.520;27.448;2022-10-17T03:50:51;102533.47;;;12.17;86.35
8575;BME280;4325;42.520;27.448;2022-10-17T03:53:18;102535.75;;;12.09;86.69
8575;BME280;4325;42.520;27.448;2022-10-17T03:55:46;102533.94;;;12.03;85.92
8575;BME280;4325;42.520;27.448;2022-10-17T03:58:13;102531.19;;;12.03;86.58
8575;BME280;4325;42.520;27.448;2022-10-17T04:00:40;102534.44;;;12.00;86.01
8575;BME280;4325;42.520;27.448;2022-10-17T04:03:06;102537.19;;;12.00;85.66
8575;BME280;4325;42.520;27.448;2022-10-17T04:05:33;102538.84;;;12.01;85.13
8575;BME280;4325;42.520;27.448;2022-10-17T04:08:00;102532.03;;;12.03;85.13
8575;BME280;4325;42.520;27.448;2022-10-17T04:10:27;102532.28;;;12.02;85.76
8575;BME280;4325;42.520;27.448;2022-10-17T04:12:55;102537.53;;;12.03;85.92
8575;BME280;4325;42.520;27.448;2022-10-17T04:15:22;102529.88;;;12.05;86.15
8575;BME280;4325;42.520;27.448;2022-10-17T04:17:49;102526.31;;;12.16;83.94
8575;BME280;4325;42.520;27.448;2022-10-17T04:20:16;102525.25;;;12.29;83.41
8575;BME280;4325;42.520;27.448;2022-10-17T04:22:43;102532.03;;;12.38;83.70
8575;BME280;4325;42.520;27.448;2022-10-17T04:25:10;102534.66;;;12.44;83.53
8575;BME280;4325;42.520;27.448;2022-10-17T04:27:36;102534.53;;;12.51;83.34
8575;BME280;4325;42.520;27.448;2022-10-17T04:30:06;102548.88;;;12.53;83.09
8575;BME280;4325;42.520;27.448;2022-10-17T04:32:35;102537.53;;;12.49;83.38
8575;BME280;4325;42.520;27.448;2022-10-17T04:35:03;102527.72;;;12.42;84.21
8575;BME280;4325;42.520;27.448;2022-10-17T04:37:30;102545.03;;;12.54;84.19
8575;BME280;4325;42.520;27.448;2022-10-17T04:39:57;102543.00;;;12.61;83.58
8575;BME280;4325;42.520;27.448;2022-10-17T04:42:23;102538.31;;;12.73;82.00
8575;BME280;4325;42.520;27.448;2022-10-17T04:44:50;102532.91;;;12.90;79.95
8575;BME280;4325;42.520;27.448;2022-10-17T04:47:19;102543.28;;;13.11;77.72
8575;BME280;4325;42.520;27.448;2022-10-17T04:49:45;102555.41;;;13.27;76.07
8575;BME280;4325;42.520;27.448;2022-10-17T04:52:12;102546.84;;;13.40;74.24
8575;BME280;4325;42.520;27.448;2022-10-17T04:54:39;102556.00;;;13.57;72.89
8575;BME280;4325;42.520;27.448;2022-10-17T04:57:06;102572.69;;;13.67;72.94
8575;BME280;4325;42.520;27.448;2022-10-17T04:59:33;102574.78;;;13.76;72.59
8575;BME280;4325;42.520;27.448;2022-10-17T05:02:00;102575.06;;;13.92;74.25
8575;BME280;4325;42.520;27.448;2022-10-17T05:04:28;102570.31;;;14.04;73.39
8575;BME280;4325;42.520;27.448;2022-10-17T05:06:55;102582.66;;;14.18;73.53
8575;BME280;4325;42.520;27.448;2022-10-17T05:09:22;102584.84;;;14.32;72.37
8575;BME280;4325;42.520;27.448;2022-10-17T05:11:49;102589.94;;;14.40;70.04
8575;BME280;4325;42.520;27.448;2022-10-17T05:14:15;102598.44;;;14.55;69.08
8575;BME280;4325;42.520;27.448;2022-10-17T05:16:42;102591.72;;;14.68;66.68
8575;BME280;4325;42.520;27.448;2022-10-17T05:19:10;102596.38;;;14.84;65.95
8575;BME280;4325;42.520;27.448;2022-10-17T05:21:38;102597.84;;;14.92;65.39
8575;BME280;4325;42.520;27.448;2022-10-17T05:24:05;102603.34;;;14.92;65.43
8575;BME280;4325;42.520;27.448;2022-10-17T05:26:33;102602.28;;;14.93;63.93
8575;BME280;4325;42.520;27.448;2022-10-17T05:29:00;102605.03;;;14.93;64.16
8575;BME280;4325;42.520;27.448;2022-10-17T05:31:27;102604.34;;;15.02;63.36
8575;BME280;4325;42.520;27.448;2022-10-17T05:33:54;102608.13;;;15.18;64.32
8575;BME280;4325;42.520;27.448;2022-10-17T05:36:21;102617.63;;;15.27;64.19
8575;BME280;4325;42.520;27.448;2022-10-17T05:38:50;102618.59;;;15.38;62.10
8575;BME280;4325;42.520;27.448;2022-10-17T05:41:18;102613.75;;;15.45;62.16
8575;BME280;4325;42.520;27.448;2022-10-17T05:43:45;102622.94;;;15.55;63.33
8575;BME280;4325;42.520;27.448;2022-10-17T05:46:12;102626.41;;;15.67;62.20
8575;BME280;4325;42.520;27.448;2022-10-17T05:48:39;102632.13;;;15.88;60.63
8575;BME280;4325;42.520;27.448;2022-10-17T05:51:07;102643.34;;;16.34;59.69
8575;BME280;4325;42.520;27.448;2022-10-17T05:53:37;102638.34;;;17.05;58.18
8575;BME280;4325;42.520;27.448;2022-10-17T05:56:07;102650.53;;;17.66;54.92
8575;BME280;4325;42.520;27.448;2022-10-17T05:58:34;102645.63;;;18.18;53.93
8575;BME280;4325;42.520;27.448;2022-10-17T06:01:03;102648.94;;;18.35;51.28
8575;BME280;4325;42.520;27.448;2022-10-17T06:03:31;102654.50;;;18.35;50.00
8575;BME280;4325;42.520;27.448;2022-10-17T06:06:02;102662.28;;;18.38;50.07
8575;BME280;4325;42.520;27.448;2022-10-17T06:08:29;102657.00;;;18.42;47.80
8575;BME280;4325;42.520;27.448;2022-10-17T06:10:56;102672.56;;;18.48;48.69
8575;BME280;4325;42.520;27.448;2022-10-17T06:13:25;102670.91;;;18.47;48.56
8575;BME280;4325;42.520;27.448;2022-10-17T06:15:52;102672.53;;;18.33;47.53
8575;BME280;4325;42.520;27.448;2022-10-17T06:18:19;102672.53;;;18.33;47.30
8575;BME280;4325;42.520;27.448;2022-10-17T06:20:46;102669.25;;;18.56;47.30
8575;BME280;4325;42.520;27.448;2022-10-17T06:23:13;102665.81;;;19.09;46.58
8575;BME280;4325;42.520;27.448;2022-10-17T06:25:40;102666.00;;;19.97;45.44
8575;BME280;4325;42.520;27.448;2022-10-17T06:28:07;102675.03;;;20.85;42.89
8575;BME280;4325;42.520;27.448;2022-10-17T06:30:38;102672.88;;;21.30;40.91
8575;BME280;4325;42.520;27.448;2022-10-17T06:33:05;102675.50;;;21.87;40.01
8575;BME280;4325;42.520;27.448;2022-10-17T06:35:32;102672.72;;;22.89;38.13
8575;BME280;4325;42.520;27.448;2022-10-17T06:37:58;102678.53;;;22.60;38.50
8575;BME280;4325;42.520;27.448;2022-10-17T06:40:25;102667.66;;;21.89;38.27
8575;BME280;4325;42.520;27.448;2022-10-17T06:42:52;102678.75;;;21.28;39.11
8575;BME280;4325;42.520;27.448;2022-10-17T06:45:19;102675.66;;;20.77;42.84
8575;BME280;4325;42.520;27.448;2022-10-17T06:47:47;102674.34;;;20.36;41.77
8575;BME280;4325;42.520;27.448;2022-10-17T06:50:15;102673.66;;;20.10;43.03
8575;BME280;4325;42.520;27.448;2022-10-17T06:52:41;102670.69;;;20.02;42.64
8575;BME280;4325;42.520;27.448;2022-10-17T06:55:08;102661.47;;;20.06;43.44
8575;BME280;4325;42.520;27.448;2022-10-17T06:57:35;102670.81;;;20.20;43.23
8575;BME280;4325;42.520;27.448;2022-10-17T07:00:03;102666.59;;;20.33;45.53
8575;BME280;4325;42.520;27.448;2022-10-17T07:02:31;102670.84;;;20.54;45.47
8575;BME280;4325;42.520;27.448;2022-10-17T07:04:59;102670.97;;;20.73;45.93
8575;BME280;4325;42.520;27.448;2022-10-17T07:07:29;102670.03;;;20.82;44.88
8575;BME280;4325;42.520;27.448;2022-10-17T07:09:56;102669.47;;;20.85;43.75
8575;BME280;4325;42.520;27.448;2022-10-17T07:12:23;102683.34;;;20.90;44.96
8575;BME280;4325;42.520;27.448;2022-10-17T07:14:50;102677.78;;;20.90;44.60
8575;BME280;4325;42.520;27.448;2022-10-17T07:17:17;102683.75;;;21.02;44.96
8575;BME280;4325;42.520;27.448;2022-10-17T07:19:44;102683.13;;;21.11;44.59
8575;BME280;4325;42.520;27.448;2022-10-17T07:22:12;102686.22;;;21.33;44.91
8575;BME280;4325;42.520;27.448;2022-10-17T07:24:39;102681.19;;;21.77;45.31
8575;BME280;4325;42.520;27.448;2022-10-17T07:27:06;102681.53;;;22.31;44.04
8575;BME280;4325;42.520;27.448;2022-10-17T07:29:33;102684.63;;;23.08;42.31
8575;BME280;4325;42.520;27.448;2022-10-17T07:32:00;102682.28;;;23.56;40.23
8575;BME280;4325;42.520;27.448;2022-10-17T07:34:28;102680.69;;;23.91;40.65
8575;BME280;4325;42.520;27.448;2022-10-17T07:36:56;102682.09;;;24.15;40.20
8575;BME280;4325;42.520;27.448;2022-10-17T07:39:24;102681.47;;;25.64;38.40
8575;BME280;4325;42.520;27.448;2022-10-17T07:41:51;102680.50;;;27.84;34.00
8575;BME280;4325;42.520;27.448;2022-10-17T07:44:18;102688.41;;;27.70;33.80
8575;BME280;4325;42.520;27.448;2022-10-17T07:46:45;102687.22;;;27.04;34.52
8575;BME280;4325;42.520;27.448;2022-10-17T07:49:12;102698.91;;;26.34;36.14
8575;BME280;4325;42.520;27.448;2022-10-17T07:51:39;102698.38;;;25.89;36.82
8575;BME280;4325;42.520;27.448;2022-10-17T07:54:06;102694.66;;;25.54;36.94
8575;BME280;4325;42.520;27.448;2022-10-17T07:56:35;102702.38;;;26.40;36.28
8575;BME280;4325;42.520;27.448;2022-10-17T07:59:02;102705.88;;;29.00;33.68
8575;BME280;4325;42.520;27.448;2022-10-17T08:01:28;102696.22;;;31.52;28.93
8575;BME280;4325;42.520;27.448;2022-10-17T08:03:55;102701.81;;;33.17;27.06
8575;BME280;4325;42.520;27.448;2022-10-17T08:06:22;102694.75;;;33.82;25.46
8575;BME280;4325;42.520;27.448;2022-10-17T08:08:49;102694.94;;;32.99;26.19
8575;BME280;4325;42.520;27.448;2022-10-17T08:11:16;102706.97;;;31.30;27.78
8575;BME280;4325;42.520;27.448;2022-10-17T08:13:45;102708.06;;;29.39;29.85
8575;BME280;4325;42.520;27.448;2022-10-17T08:16:12;102704.03;;;28.50;31.45
8575;BME280;4325;42.520;27.448;2022-10-17T08:18:41;102692.53;;;28.02;32.04
8575;BME280;4325;42.520;27.448;2022-10-17T08:21:09;102683.47;;;29.52;30.59
8575;BME280;4325;42.520;27.448;2022-10-17T08:23:37;102687.56;;;32.52;27.63
8575;BME280;4325;42.520;27.448;2022-10-17T08:26:06;102691.94;;;33.11;26.13
8575;BME280;4325;42.520;27.448;2022-10-17T08:28:35;102688.88;;;35.96;23.99
8575;BME280;4325;42.520;27.448;2022-10-17T08:31:06;102686.03;;;38.71;21.00
8575;BME280;4325;42.520;27.448;2022-10-17T08:33:33;102698.94;;;39.52;20.14
8575;BME280;4325;42.520;27.448;2022-10-17T08:36:01;102705.09;;;39.91;19.94
8575;BME280;4325;42.520;27.448;2022-10-17T08:38:29;102686.66;;;41.99;18.44
8575;BME280;4325;42.520;27.448;2022-10-17T08:40:59;102700.59;;;42.95;17.24
8575;BME280;4325;42.520;27.448;2022-10-17T08:43:45;102685.34;;;43.11;16.45
8575;BME280;4325;42.520;27.448;2022-10-17T08:46:16;102691.19;;;42.00;16.49
8575;BME280;4325;42.520;27.448;2022-10-17T08:48:45;102691.59;;;41.09;17.14
8575;BME280;4325;42.520;27.448;2022-10-17T08:51:17;102694.72;;;40.35;18.21
8575;BME280;4325;42.520;27.448;2022-10-17T08:53:49;102690.66;;;41.62;17.38
8575;BME280;4325;42.520;27.448;2022-10-17T08:56:19;102680.81;;;41.40;17.45
8575;BME280;4325;42.520;27.448;2022-10-17T08:58:46;102690.59;;;40.02;18.49
8575;BME280;4325;42.520;27.448;2022-10-17T09:01:28;102692.88;;;38.08;19.75
8575;BME280;4325;42.520;27.448;2022-10-17T09:04:08;102698.19;;;35.86;21.54
8575;BME280;4325;42.520;27.448;2022-10-17T09:06:46;102673.31;;;34.48;22.72
8575;BME280;4325;42.520;27.448;2022-10-17T09:09:26;102686.47;;;33.70;23.80
8575;BME280;4325;42.520;27.448;2022-10-17T09:12:03;102693.25;;;32.94;24.75
8575;BME280;4325;42.520;27.448;2022-10-17T09:17:33;102686.22;;;33.56;24.68
8575;BME280;4325;42.520;27.448;2022-10-17T09:20:05;102681.09;;;33.16;25.59
8575;BME280;4325;42.520;27.448;2022-10-17T09:22:38;102678.41;;;32.82;25.42
8575;BME280;4325;42.520;27.448;2022-10-17T09:25:11;102677.53;;;32.78;26.12
8575;BME280;4325;42.520;27.448;2022-10-17T09:27:41;102682.78;;;32.56;27.34
8575;BME280;4325;42.520;27.448;2022-10-17T09:30:25;102684.88;;;32.02;28.52
8575;BME280;4325;42.520;27.448;2022-10-17T09:32:55;102671.75;;;31.78;28.19
8575;BME280;4325;42.520;27.448;2022-10-17T09:35:23;102679.78;;;32.11;28.67
8575;BME280;4325;42.520;27.448;2022-10-17T09:37:51;102679.44;;;32.51;27.48
8575;BME280;4325;42.520;27.448;2022-10-17T09:40:21;102680.63;;;31.96;26.98
8575;BME280;4325;42.520;27.448;2022-10-17T09:42:50;102672.88;;;33.86;26.01
8575;BME280;4325;42.520;27.448;2022-10-17T09:45:19;102680.25;;;36.72;23.11
8575;BME280;4325;42.520;27.448;2022-10-17T09:47:57;102682.66;;;40.16;19.23
8575;BME280;4325;42.520;27.448;2022-10-17T09:50:29;102682.00;;;43.45;17.10
8575;BME280;4325;42.520;27.448;2022-10-17T09:52:59;102683.47;;;45.61;15.20
8575;BME280;4325;42.520;27.448;2022-10-17T09:55:32;102673.00;;;47.57;14.09
8575;BME280;4325;42.520;27.448;2022-10-17T09:58:05;102674.25;;;48.20;13.15
8575;BME280;4325;42.520;27.448;2022-10-17T10:00:34;102675.78;;;48.57;12.90
8575;BME280;4325;42.520;27.448;2022-10-17T10:03:14;102665.75;;;48.58;13.25
8575;BME280;4325;42.520;27.448;2022-10-17T10:05:44;102673.44;;;49.27;12.28
8575;BME280;4325;42.520;27.448;2022-10-17T10:08:26;102672.13;;;49.90;12.53
8575;BME280;4325;42.520;27.448;2022-10-17T10:10:58;102653.63;;;47.63;12.39
8575;BME280;4325;42.520;27.448;2022-10-17T10:13:28;102667.34;;;44.25;15.01
8575;BME280;4325;42.520;27.448;2022-10-17T10:16:12;102653.56;;;43.14;15.70
8575;BME280;4325;42.520;27.448;2022-10-17T10:18:41;102667.47;;;45.91;14.96
8575;BME280;4325;42.520;27.448;2022-10-17T10:21:10;102661.25;;;48.81;12.30
8575;BME280;4325;42.520;27.448;2022-10-17T10:23:39;102654.44;;;47.64;12.93
8575;BME280;4325;42.520;27.448;2022-10-17T10:26:21;102660.03;;;43.79;15.57
8575;BME280;4325;42.520;27.448;2022-10-17T10:28:57;102659.06;;;42.01;16.85
8575;BME280;4325;42.520;27.448;2022-10-17T10:31:29;102648.47;;;44.08;15.64
8575;BME280;4325;42.520;27.448;2022-10-17T10:33:59;102647.59;;;43.82;15.68
8575;BME280;4325;42.520;27.448;2022-10-17T10:36:42;102643.16;;;46.10;14.22
8575;BME280;4325;42.520;27.448;2022-10-17T10:39:22;102636.88;;;46.73;12.98
8575;BME280;4325;42.520;27.448;2022-10-17T10:41:51;102640.84;;;46.58;12.66
8575;BME280;4325;42.520;27.448;2022-10-17T10:44:21;102636.88;;;44.49;14.13
8575;BME280;4325;42.520;27.448;2022-10-17T10:47:04;102636.88;;;44.49;14.87
8575;BME280;4325;42.520;27.448;2022-10-17T10:49:33;102635.44;;;46.07;14.04
8575;BME280;4325;42.520;27.448;2022-10-17T10:52:00;102636.38;;;47.42;13.60
8575;BME280;4325;42.520;27.448;2022-10-17T10:54:32;102634.22;;;47.06;13.25
8575;BME280;4325;42.520;27.448;2022-10-17T10:57:03;102634.09;;;47.19;12.93
8575;BME280;4325;42.520;27.448;2022-10-17T10:59:35;102631.94;;;46.92;13.72
8575;BME280;4325;42.520;27.448;2022-10-17T11:02:13;102624.09;;;47.20;13.72
8575;BME280;4325;42.520;27.448;2022-10-17T11:04:46;102622.31;;;48.04;13.17
8575;BME280;4325;42.520;27.448;2022-10-17T11:07:17;102635.88;;;48.81;12.27
8575;BME280;4325;42.520;27.448;2022-10-17T11:09:50;102615.03;;;46.41;13.76
8575;BME280;4325;42.520;27.448;2022-10-17T11:12:21;102613.28;;;43.11;15.98
8575;BME280;4325;42.520;27.448;2022-10-17T11:15:00;102616.03;;;40.32;17.67
8575;BME280;4325;42.520;27.448;2022-10-17T11:17:33;102613.97;;;38.07;19.50
8575;BME280;4325;42.520;27.448;2022-10-17T11:20:11;102614.69;;;35.82;21.43
8575;BME280;4325;42.520;27.448;2022-10-17T11:22:43;102617.31;;;34.56;22.63
8575;BME280;4325;42.520;27.448;2022-10-17T11:25:30;102612.75;;;33.84;23.44
8575;BME280;4325;42.520;27.448;2022-10-17T11:27:57;102613.00;;;32.97;23.86
8575;BME280;4325;42.520;27.448;2022-10-17T11:30:35;102605.31;;;31.95;24.01
8575;BME280;4325;42.520;27.448;2022-10-17T11:33:05;102606.91;;;33.70;22.85
8575;BME280;4325;42.520;27.448;2022-10-17T11:35:38;102612.75;;;33.84;22.43
8575;BME280;4325;42.520;27.448;2022-10-17T11:38:13;102614.22;;;33.19;23.27
8575;BME280;4325;42.520;27.448;2022-10-17T11:40:45;102615.34;;;34.26;22.20
8575;BME280;4325;42.520;27.448;2022-10-17T11:43:16;102608.75;;;37.81;19.60
8575;BME280;4325;42.520;27.448;2022-10-17T11:45:47;102613.94;;;40.06;18.23
8575;BME280;4325;42.520;27.448;2022-10-17T11:48:21;102612.34;;;41.94;17.64
8575;BME280;4325;42.520;27.448;2022-10-17T11:50:56;102619.56;;;43.95;16.55
8575;BME280;4325;42.520;27.448;2022-10-17T11:53:28;102610.63;;;44.94;15.75
8575;BME280;4325;42.520;27.448;2022-10-17T11:55:57;102608.31;;;44.64;16.22
8575;BME280;4325;42.520;27.448;2022-10-17T11:58:34;102616.69;;;45.56;15.21
8575;BME280;4325;42.520;27.448;2022-10-17T12:01:12;102613.59;;;45.72;14.52
8575;BME280;4325;42.520;27.448;2022-10-17T12:03:53;102614.06;;;47.02;14.02
8575;BME280;4325;42.520;27.448;2022-10-17T12:06:36;102615.66;;;46.45;13.96
8575;BME280;4325;42.520;27.448;2022-10-17T12:09:10;102609.34;;;45.64;14.22
8575;BME280;4325;42.520;27.448;2022-10-17T12:11:47;102611.75;;;46.39;14.30
8575;BME280;4325;42.520;27.448;2022-10-17T12:14:39;102615.25;;;47.14;13.73
8575;BME280;4325;42.520;27.448;2022-10-17T12:17:27;102616.22;;;47.11;13.27
8575;BME280;4325;42.520;27.448;2022-10-17T12:20:25;102616.75;;;46.08;14.39
8575;BME280;4325;42.520;27.448;2022-10-17T12:22:56;102601.00;;;46.40;14.20
8575;BME280;4325;42.520;27.448;2022-10-17T12:25:27;102611.16;;;46.44;13.86
8575;BME280;4325;42.520;27.448;2022-10-17T12:28:10;102604.06;;;46.36;14.08
8575;BME280;4325;42.520;27.448;2022-10-17T12:30:52;102610.38;;;46.22;14.22
8575;BME280;4325;42.520;27.448;2022-10-17T12:33:21;102605.19;;;46.17;14.22
8575;BME280;4325;42.520;27.448;2022-10-17T12:39:48;102616.25;;;45.88;13.94
8575;BME280;4325;42.520;27.448;2022-10-17T12:42:48;102617.44;;;45.35;14.64
8575;BME280;4325;42.520;27.448;2022-10-17T12:45:44;102613.31;;;44.64;15.11
8575;BME280;4325;42.520;27.448;2022-10-17T12:48:12;102599.53;;;44.55;15.58
8575;BME280;4325;42.520;27.448;2022-10-17T12:51:02;102598.16;;;44.47;15.81
8575;BME280;4325;42.520;27.448;2022-10-17T12:53:36;102603.00;;;44.75;16.04
8575;BME280;4325;42.520;27.448;2022-10-17T12:56:07;102601.44;;;43.95;15.98
8575;BME280;4325;42.520;27.448;2022-10-17T12:58:34;102596.47;;;43.38;16.65
8575;BME280;4325;42.520;27.448;2022-10-17T13:01:03;102599.63;;;43.72;16.32
8575;BME280;4325;42.520;27.448;2022-10-17T13:03:39;102589.94;;;43.50;16.81
8575;BME280;4325;42.520;27.448;2022-10-17T13:06:15;102599.91;;;43.33;17.13
8575;BME280;4325;42.520;27.448;2022-10-17T13:08:47;102590.41;;;42.55;17.66
8575;BME280;4325;42.520;27.448;2022-10-17T13:11:21;102587.56;;;42.36;18.16
8575;BME280;4325;42.520;27.448;2022-10-17T13:13:51;102589.88;;;41.69;18.26
8575;BME280;4325;42.520;27.448;2022-10-17T13:16:29;102596.91;;;40.49;19.22
8575;BME280;4325;42.520;27.448;2022-10-17T13:18:56;102602.84;;;40.35;19.46
8575;BME280;4325;42.520;27.448;2022-10-17T13:21:23;102593.81;;;40.36;19.32
8575;BME280;4325;42.520;27.448;2022-10-17T13:23:50;102602.63;;;40.52;18.85
8575;BME280;4325;42.520;27.448;2022-10-17T13:26:23;102595.78;;;40.12;19.08
8575;BME280;4325;42.520;27.448;2022-10-17T13:29:03;102605.84;;;39.60;19.83